Time;durP1;ratioP1;P1;durP2;ratioP2;P2;SDS_P1;SDS_P2;PMS_P1;PMS_P2;Temp;Humidity;BMP_temperature;BMP_pressure;BME280_temperature;BME280_humidity;BME280_pressure;Samples;Min_cycle;Max_cycle;Signal;HPM_P1;HPM_P2
2023/01/20 00:01:18;;;;;;;39.83;23.65;;;-0.30;99.90;;;;;;4718015;28;10000130;-79
2023/01/20 00:03:44;;;;;;;39.63;23.05;;;-0.30;99.90;;;;;;5068346;28;20042;-80
2023/01/20 00:06:11;;;;;;;38.42;23.35;;;-0.30;99.90;;;;;;5059916;28;20039;-80
2023/01/20 00:08:37;;;;;;;42.65;24.83;;;-0.30;99.90;;;;;;5056596;28;20021;-80
2023/01/20 00:11:04;;;;;;;44.72;26.27;;;-0.30;99.90;;;;;;5066706;28;20057;-80
2023/01/20 00:13:30;;;;;;;45.80;26.08;;;-0.30;99.90;;;;;;5063834;28;20025;-79
2023/01/20 00:15:55;;;;;;;45.08;25.90;;;-0.20;99.90;;;;;;5066442;28;20161;-79
2023/01/20 00:18:21;;;;;;;42.20;25.77;;;-0.30;99.90;;;;;;5063906;28;20081;-80
2023/01/20 00:20:47;;;;;;;46.35;26.02;;;-0.30;99.90;;;;;;5066518;28;20032;-80
2023/01/20 00:23:12;;;;;;;43.75;25.92;;;-0.30;99.90;;;;;;5060569;28;20082;-80
2023/01/20 00:25:38;;;;;;;46.83;25.02;;;-0.30;99.90;;;;;;5064015;28;20043;-76
2023/01/20 00:28:03;;;;;;;41.03;24.40;;;-0.30;99.90;;;;;;5063574;28;20056;-77
2023/01/20 00:30:30;;;;;;;44.60;25.70;;;-0.30;99.90;;;;;;5058346;28;20036;-80
2023/01/20 00:32:55;;;;;;;45.28;25.58;;;-0.30;99.90;;;;;;5064634;28;20035;-80
2023/01/20 00:35:21;;;;;;;42.95;25.15;;;-0.30;99.90;;;;;;5063672;28;20021;-80
2023/01/20 00:37:46;;;;;;;44.05;25.02;;;-0.30;99.90;;;;;;5062958;28;20063;-80
2023/01/20 00:40:12;;;;;;;44.83;24.60;;;-0.30;99.90;;;;;;5058935;28;20028;-80
2023/01/20 00:42:38;;;;;;;44.38;25.02;;;-0.30;99.90;;;;;;5051970;28;20546;-80
2023/01/20 00:45:04;;;;;;;46.67;26.25;;;-0.30;99.90;;;;;;5062754;28;20067;-77
2023/01/20 00:47:29;;;;;;;44.83;25.38;;;-0.30;99.90;;;;;;5058747;28;20033;-77
2023/01/20 00:49:55;;;;;;;46.42;25.02;;;-0.30;99.90;;;;;;5062531;28;20066;-76
2023/01/20 00:52:21;;;;;;;45.80;25.75;;;-0.30;99.90;;;;;;5057805;28;20032;-77
2023/01/20 00:54:46;;;;;;;44.35;26.35;;;-0.30;99.90;;;;;;5064216;28;20085;-77
2023/01/20 00:57:12;;;;;;;42.97;25.23;;;-0.30;99.90;;;;;;5063514;28;20083;-77
2023/01/20 00:59:38;;;;;;;43.30;25.45;;;-0.30;99.90;;;;;;5066763;28;20551;-76
2023/01/20 01:02:03;;;;;;;43.90;25.67;;;-0.30;99.90;;;;;;5060698;28;20033;-76
2023/01/20 01:04:29;;;;;;;45.47;26.27;;;-0.20;99.90;;;;;;5060011;28;20039;-77
2023/01/20 01:06:55;;;;;;;41.90;23.63;;;-0.20;99.90;;;;;;5067025;28;20094;-77
2023/01/20 01:09:21;;;;;;;45.38;25.13;;;-0.20;99.90;;;;;;5060673;28;20551;-77
2023/01/20 01:11:47;;;;;;;39.17;24.65;;;-0.20;99.90;;;;;;5039020;28;20036;-77
2023/01/20 01:14:13;;;;;;;48.97;26.33;;;-0.20;99.90;;;;;;5064153;28;20124;-76
2023/01/20 01:16:39;;;;;;;45.03;25.73;;;-0.20;99.90;;;;;;5060588;28;20112;-76
2023/01/20 01:19:04;;;;;;;46.00;25.75;;;-0.20;99.90;;;;;;5064546;28;20468;-79
2023/01/20 01:21:30;;;;;;;42.85;25.35;;;-0.20;99.90;;;;;;5062061;28;20103;-80
2023/01/20 01:23:56;;;;;;;43.75;25.85;;;-0.20;99.90;;;;;;5056830;28;20167;-79
2023/01/20 01:26:22;;;;;;;40.97;24.15;;;-0.20;99.90;;;;;;5064010;28;20154;-80
2023/01/20 01:28:48;;;;;;;42.53;24.05;;;-0.20;99.90;;;;;;5063171;28;20043;-79
2023/01/20 01:31:15;;;;;;;43.80;24.60;;;-0.20;99.90;;;;;;5056755;28;20028;-80
2023/01/20 01:33:41;;;;;;;40.67;23.63;;;-0.20;99.90;;;;;;5057541;28;20025;-80
2023/01/20 01:36:11;;;;;;;44.78;25.15;;;-0.20;99.90;;;;;;5063186;28;20031;-80
2023/01/20 01:38:37;;;;;;;43.20;24.48;;;-0.20;99.90;;;;;;5058092;28;20058;-80
2023/01/20 01:41:02;;;;;;;44.10;24.80;;;-0.20;99.90;;;;;;5060688;28;20037;-80
2023/01/20 01:43:29;;;;;;;41.80;24.63;;;-0.20;99.90;;;;;;5061948;28;20033;-80
2023/01/20 01:45:55;;;;;;;42.55;24.85;;;-0.10;99.90;;;;;;5059875;28;20051;-80
2023/01/20 01:48:25;;;;;;;40.15;24.10;;;-0.20;99.90;;;;;;5060690;28;20052;-80
2023/01/20 01:51:31;;;;;;;38.92;23.58;;;-0.20;99.90;;;;;;5057656;28;20045;-80
2023/01/20 01:54:06;;;;;;;39.78;23.10;;;-0.20;99.90;;;;;;5060219;28;20107;-79
2023/01/20 01:56:32;;;;;;;42.08;24.27;;;-0.20;99.90;;;;;;5066638;28;20023;-80
2023/01/20 01:59:01;;;;;;;42.58;23.33;;;-0.20;99.90;;;;;;5067698;28;20544;-79
2023/01/20 02:01:27;;;;;;;40.13;22.60;;;-0.20;99.90;;;;;;5057003;28;20087;-79
2023/01/20 02:04:04;;;;;;;38.67;23.10;;;-0.10;99.90;;;;;;5060086;28;20032;-80
2023/01/20 02:06:33;;;;;;;40.75;24.85;;;-0.20;99.90;;;;;;5062056;28;20025;-80
2023/01/20 02:09:01;;;;;;;38.40;24.25;;;-0.10;99.90;;;;;;5058520;28;20040;-80
2023/01/20 02:11:35;;;;;;;40.85;23.35;;;-0.10;99.90;;;;;;5057515;28;20045;-79
2023/01/20 02:14:01;;;;;;;37.55;23.23;;;-0.10;99.90;;;;;;5056345;28;20073;-80
2023/01/20 02:16:51;;;;;;;40.47;24.10;;;-0.10;99.90;;;;;;5068344;28;20029;-79
2023/01/20 02:19:48;;;;;;;38.45;22.38;;;-0.10;99.90;;;;;;5067284;28;20059;-79
2023/01/20 02:22:27;;;;;;;41.30;22.85;;;-0.10;99.90;;;;;;5059435;28;20078;-80
2023/01/20 02:25:24;;;;;;;38.60;22.85;;;-0.10;99.90;;;;;;5059321;28;20028;-78
2023/01/20 02:28:06;;;;;;;41.83;24.38;;;-0.10;99.90;;;;;;5054959;28;20028;-80
2023/01/20 02:30:53;;;;;;;37.50;22.70;;;0.00;99.90;;;;;;5063352;28;20033;-79
2023/01/20 02:33:38;;;;;;;36.35;21.50;;;0.00;99.90;;;;;;5060212;28;20028;-79
2023/01/20 02:36:03;;;;;;;37.83;22.23;;;0.10;99.90;;;;;;5058057;28;20108;-79
2023/01/20 02:38:43;;;;;;;32.58;21.13;;;0.10;99.90;;;;;;5057416;28;20631;-80
2023/01/20 02:41:14;;;;;;;36.03;20.85;;;0.10;99.90;;;;;;5060525;28;20061;-79
2023/01/20 02:44:25;;;;;;;37.70;22.05;;;0.10;99.90;;;;;;5049454;28;20056;-80
2023/01/20 02:46:56;;;;;;;38.35;22.80;;;0.10;99.90;;;;;;5044338;28;20028;-79
2023/01/20 02:49:31;;;;;;;40.42;23.25;;;0.10;99.90;;;;;;5059313;28;20070;-79
2023/01/20 02:52:28;;;;;;;38.42;23.50;;;0.10;99.90;;;;;;5058916;28;20435;-80
2023/01/20 02:54:58;;;;;;;38.78;23.30;;;0.00;99.90;;;;;;5058491;28;20090;-80
2023/01/20 02:57:40;;;;;;;40.45;23.60;;;0.10;99.90;;;;;;5071420;28;20044;-80
2023/01/20 03:00:15;;;;;;;26.60;16.27;;;0.00;99.90;;;;;;5064805;28;20170;-80
2023/01/20 03:02:44;;;;;;;40.05;23.42;;;0.10;99.90;;;;;;5058369;28;20530;-80
2023/01/20 03:05:14;;;;;;;40.75;23.52;;;0.20;99.90;;;;;;5070737;28;20032;-80
2023/01/20 03:07:44;;;;;;;39.85;23.45;;;0.30;99.90;;;;;;5060971;28;20028;-80
2023/01/20 03:10:14;;;;;;;37.38;22.83;;;0.30;99.90;;;;;;5058933;28;20425;-80
2023/01/20 03:12:51;;;;;;;39.28;23.20;;;0.40;99.90;;;;;;5048892;28;20078;-80
2023/01/20 03:15:23;;;;;;;39.85;23.10;;;0.50;99.90;;;;;;5059286;28;20024;-80
2023/01/20 03:17:48;;;;;;;41.03;24.27;;;0.50;99.90;;;;;;5060298;28;20039;-80
2023/01/20 03:20:14;;;;;;;40.17;23.88;;;0.50;99.90;;;;;;5059336;28;20036;-80
2023/01/20 03:22:40;;;;;;;36.50;22.10;;;0.50;99.90;;;;;;5058915;28;20037;-79
2023/01/20 03:25:08;;;;;;;37.08;22.33;;;0.60;99.90;;;;;;5058778;28;20039;-80
2023/01/20 03:27:34;;;;;;;38.55;23.67;;;0.60;99.90;;;;;;5059123;28;20036;-79
2023/01/20 03:29:59;;;;;;;38.50;23.30;;;0.60;99.90;;;;;;5065179;28;20405;-79
2023/01/20 03:32:25;;;;;;;37.15;21.83;;;0.60;99.90;;;;;;5062941;28;20024;-80
2023/01/20 03:34:54;;;;;;;38.55;23.40;;;0.50;99.90;;;;;;5060352;28;20340;-80
2023/01/20 03:37:20;;;;;;;40.10;24.10;;;0.40;99.90;;;;;;5062847;28;20170;-80
2023/01/20 03:39:46;;;;;;;37.65;22.75;;;0.40;99.90;;;;;;5064242;28;20288;-80
2023/01/20 03:42:15;;;;;;;39.45;23.73;;;0.30;99.90;;;;;;5057399;28;20138;-80
2023/01/20 03:45:13;;;;;;;37.80;23.08;;;0.20;99.90;;;;;;5061162;28;20036;-80
2023/01/20 03:47:47;;;;;;;37.20;21.77;;;0.20;99.90;;;;;;5059288;28;20032;-79
2023/01/20 03:50:35;;;;;;;37.22;22.02;;;0.10;99.90;;;;;;5062425;28;20558;-78
2023/01/20 03:53:20;;;;;;;34.03;20.85;;;0.00;99.90;;;;;;5060978;28;20043;-79
2023/01/20 03:55:55;;;;;;;38.17;22.23;;;-0.10;99.90;;;;;;5061144;28;20025;-80
2023/01/20 03:58:27;;;;;;;34.25;20.60;;;-0.20;99.90;;;;;;5062532;28;20032;-78
2023/01/20 04:00:53;;;;;;;35.83;21.65;;;-0.20;99.90;;;;;;5061972;28;20485;-80
2023/01/20 04:03:25;;;;;;;33.33;20.70;;;-0.30;99.90;;;;;;5060248;28;20366;-80
2023/01/20 04:05:52;;;;;;;33.42;20.17;;;-0.30;99.90;;;;;;5056285;28;20141;-80
2023/01/20 04:08:24;;;;;;;34.72;20.63;;;-0.40;99.90;;;;;;5057657;28;20025;-80
2023/01/20 04:10:51;;;;;;;25.98;15.57;;;-0.30;99.90;;;;;;5057802;28;20040;-80
2023/01/20 04:13:17;;;;;;;35.85;21.35;;;-0.30;99.90;;;;;;5062647;28;20150;-80
2023/01/20 04:15:44;;;;;;;33.60;20.80;;;-0.30;99.90;;;;;;5063401;28;20704;-80
2023/01/20 04:18:16;;;;;;;35.05;22.17;;;-0.30;99.90;;;;;;5060180;28;20397;-80
2023/01/20 04:20:45;;;;;;;42.17;24.40;;;-0.10;99.90;;;;;;5063153;28;20056;-80
2023/01/20 04:23:25;;;;;;;43.22;25.52;;;;;;;;;;5059123;28;20033;-81
2023/01/20 04:25:51;;;;;;;39.67;22.95;;;;;;;;;;5060708;28;20021;-80
2023/01/20 04:28:17;;;;;;;36.25;22.10;;;;;;;;;;5062273;28;20020;-80
2023/01/20 04:30:43;;;;;;;33.88;20.77;;;;;;;;;;5057382;28;20499;-80
2023/01/20 04:33:09;;;;;;;30.83;19.23;;;;;;;;;;5063408;28;20021;-80
2023/01/20 04:35:35;;;;;;;31.63;20.00;;;;;;;;;;5063646;28;20024;-80
2023/01/20 04:38:01;;;;;;;31.48;19.27;;;;;;;;;;5060609;28;20031;-80
2023/01/20 04:40:27;;;;;;;32.38;19.75;;;;;;;;;;5057755;28;20247;-80
2023/01/20 04:42:53;;;;;;;33.20;19.33;;;;;;;;;;5060981;28;20036;-80
2023/01/20 04:45:19;;;;;;;30.20;18.10;;;;;;;;;;5053444;28;20040;-77
2023/01/20 04:47:45;;;;;;;29.88;18.08;;;;;;;;;;5060494;28;20021;-77
2023/01/20 04:50:12;;;;;;;29.70;17.35;;;;;;;;;;5053485;28;20052;-77
2023/01/20 04:52:38;;;;;;;29.50;18.88;;;;;;;;;;5062047;28;20032;-76
2023/01/20 04:55:05;;;;;;;33.40;19.65;;;;;;;;;;5059491;28;20028;-77
2023/01/20 04:57:30;;;;;;;36.33;21.40;;;;;;;;;;5064382;28;20111;-74
2023/01/20 04:59:56;;;;;;;36.97;21.05;;;;;;;;;;5057373;28;20115;-77
2023/01/20 05:02:22;;;;;;;36.05;21.13;;;;;;;;;;5059247;28;20063;-76
2023/01/20 05:04:48;;;;;;;34.85;20.48;;;;;;;;;;5058359;28;20392;-78
2023/01/20 05:07:14;;;;;;;36.90;21.17;;;;;;;;;;5056217;28;20040;-78
2023/01/20 05:09:40;;;;;;;32.80;19.48;;;;;;;;;;5061829;28;20032;-78
2023/01/20 05:12:06;;;;;;;35.03;20.70;;;;;;;;;;5055954;28;20028;-77
2023/01/20 05:14:32;;;;;;;38.53;22.77;;;;;;;;;;5063392;28;20579;-78
2023/01/20 05:16:58;;;;;;;35.35;21.25;;;;;;;;;;5058627;28;20025;-78
2023/01/20 05:19:24;;;;;;;39.15;22.95;;;;;;;;;;5063193;28;20036;-77
2023/01/20 05:21:50;;;;;;;37.25;21.52;;;;;;;;;;5060473;28;20498;-78
2023/01/20 05:24:16;;;;;;;35.40;20.67;;;;;;;;;;5057240;28;20037;-78
2023/01/20 05:26:42;;;;;;;36.15;21.90;;;;;;;;;;5061919;28;20078;-78
2023/01/20 05:29:08;;;;;;;35.58;21.15;;;;;;;;;;5061375;28;20098;-78
2023/01/20 05:31:36;;;;;;;36.13;20.60;;;;;;;;;;5056441;28;20028;-78
2023/01/20 05:34:02;;;;;;;39.03;22.33;;;;;;;;;;5058914;28;20032;-78
2023/01/20 05:36:29;;;;;;;46.25;25.67;;;;;;;;;;5064013;28;20499;-78
2023/01/20 05:38:55;;;;;;;42.38;24.90;;;;;;;;;;5063721;28;20031;-78
2023/01/20 05:41:21;;;;;;;40.67;23.25;;;;;;;;;;5056580;28;20274;-78
2023/01/20 05:43:47;;;;;;;40.55;24.10;;;;;;;;;;5061872;28;20040;-78
2023/01/20 05:46:14;;;;;;;37.92;22.42;;;;;;;;;;5062950;28;20190;-78
2023/01/20 05:48:40;;;;;;;43.17;23.83;;;;;;;;;;5058350;28;20500;-77
2023/01/20 05:51:07;;;;;;;39.50;22.33;;;;;;;;;;5055350;28;20032;-77
2023/01/20 05:53:32;;;;;;;44.17;25.23;;;;;;;;;;5061168;28;20036;-77
2023/01/20 05:56:00;;;;;;;42.63;23.85;;;;;;;;;;5057840;28;20366;-77
2023/01/20 05:58:26;;;;;;;46.13;24.33;;;;;;;;;;5058384;28;20039;-78
2023/01/20 06:00:52;;;;;;;44.80;24.52;;;;;;;;;;5056114;28;20158;-80
2023/01/20 06:03:17;;;;;;;49.83;26.80;;;-1.30;99.90;;;;;;5051332;28;20021;-80
2023/01/20 06:05:43;;;;;;;50.38;27.52;;;-1.40;99.90;;;;;;5059835;28;20473;-80
2023/01/20 06:08:08;;;;;;;48.50;25.63;;;-1.40;99.90;;;;;;5063228;28;20044;-79
2023/01/20 06:10:34;;;;;;;53.60;28.48;;;-1.40;99.90;;;;;;5057848;28;20028;-79
2023/01/20 06:12:59;;;;;;;50.25;26.98;;;-1.40;99.90;;;;;;5049719;28;20518;-79
2023/01/20 06:15:25;;;;;;;45.35;24.90;;;-1.40;99.90;;;;;;5055330;28;20033;-80
2023/01/20 06:17:53;;;;;;;47.05;25.63;;;-1.40;99.90;;;;;;5051705;28;20078;-80
2023/01/20 06:20:19;;;;;;;49.60;26.50;;;-1.40;99.90;;;;;;5054192;28;20040;-78
2023/01/20 06:22:44;;;;;;;52.63;26.55;;;-1.40;99.90;;;;;;5060960;28;20427;-78
2023/01/20 06:25:10;;;;;;;47.85;25.95;;;-1.30;99.90;;;;;;5066410;28;20032;-77
2023/01/20 06:27:36;;;;;;;48.58;26.42;;;-1.30;99.90;;;;;;5060072;28;20059;-77
2023/01/20 06:30:03;;;;;;;46.65;26.42;;;-1.30;99.90;;;;;;5055610;28;20029;-78
2023/01/20 06:32:29;;;;;;;44.65;24.90;;;-1.30;99.90;;;;;;5067708;28;20056;-77
2023/01/20 06:34:54;;;;;;;45.35;25.83;;;-1.30;99.90;;;;;;5058068;28;20362;-78
2023/01/20 06:37:20;;;;;;;47.33;25.95;;;-1.30;99.90;;;;;;5054965;28;20090;-78
2023/01/20 06:39:47;;;;;;;52.17;27.55;;;-1.30;99.90;;;;;;5068342;28;20553;-78
2023/01/20 06:42:12;;;;;;;53.45;28.30;;;-1.20;99.90;;;;;;5051849;28;20152;-79
2023/01/20 06:44:38;;;;;;;50.53;28.63;;;-1.20;99.90;;;;;;5060652;28;20099;-78
2023/01/20 06:47:03;;;;;;;56.90;29.23;;;-1.20;99.90;;;;;;5059974;28;20090;-78
2023/01/20 06:49:29;;;;;;;53.22;27.67;;;-1.20;99.90;;;;;;5058403;28;20501;-78
2023/01/20 06:51:55;;;;;;;54.13;28.55;;;-1.20;99.90;;;;;;5082302;28;20036;-78
2023/01/20 06:54:21;;;;;;;44.92;25.38;;;-1.20;99.90;;;;;;5073756;28;20060;-78
2023/01/20 06:56:46;;;;;;;49.10;26.95;;;-1.30;99.90;;;;;;5066143;28;20512;-78
2023/01/20 06:59:12;;;;;;;52.13;28.60;;;-1.30;99.90;;;;;;5063760;28;20090;-79
2023/01/20 07:01:38;;;;;;;48.15;26.73;;;-1.30;99.90;;;;;;5056089;28;22383;-79
2023/01/20 07:04:04;;;;;;;51.70;29.17;;;-1.30;99.90;;;;;;5061732;28;20033;-78
2023/01/20 07:06:37;;;;;;;68.82;36.55;;;-1.30;99.90;;;;;;5066333;28;20631;-78
2023/01/20 07:09:04;;;;;;;58.90;31.90;;;-1.30;99.90;;;;;;5066875;28;20450;-78
2023/01/20 07:11:33;;;;;;;53.75;29.27;;;-1.40;99.90;;;;;;5064223;28;20370;-78
2023/01/20 07:14:00;;;;;;;53.30;29.48;;;-1.40;99.90;;;;;;5048160;28;20035;-79
2023/01/20 07:16:25;;;;;;;53.55;29.52;;;-1.50;99.90;;;;;;5060111;28;20043;-78
2023/01/20 07:18:52;;;;;;;55.22;30.95;;;-1.50;99.90;;;;;;5063769;28;20447;-78
2023/01/20 07:21:18;;;;;;;58.53;32.25;;;-1.50;99.90;;;;;;5058709;28;20029;-79
2023/01/20 07:23:44;;;;;;;82.80;42.75;;;-1.60;99.90;;;;;;5065302;28;20110;-78
2023/01/20 07:26:13;;;;;;;81.07;44.15;;;-1.60;99.90;;;;;;5058373;28;20056;-78
2023/01/20 07:28:38;;;;;;;73.97;40.00;;;-1.60;99.90;;;;;;5062757;28;20495;-78
2023/01/20 07:31:10;;;;;;;70.18;37.70;;;-1.60;99.90;;;;;;5065450;28;20025;-78
2023/01/20 07:33:36;;;;;;;68.95;36.75;;;-1.60;99.90;;;;;;5065140;28;20031;-78
2023/01/20 07:36:02;;;;;;;70.55;37.47;;;-1.50;99.90;;;;;;5061093;28;20021;-78
2023/01/20 07:38:29;;;;;;;69.82;36.78;;;-1.50;99.90;;;;;;5062420;28;20036;-78
2023/01/20 07:41:02;;;;;;;70.45;38.53;;;-1.40;99.90;;;;;;5058029;28;20032;-78
2023/01/20 07:43:28;;;;;;;80.65;40.97;;;-1.40;99.90;;;;;;5058526;28;20183;-79
2023/01/20 07:45:58;;;;;;;71.97;38.30;;;-1.40;99.90;;;;;;5065577;28;20146;-79
2023/01/20 07:48:24;;;;;;;77.18;39.72;;;-1.30;99.90;;;;;;5070235;28;20559;-77
2023/01/20 07:51:00;;;;;;;74.03;39.45;;;-1.30;99.90;;;;;;5058437;28;20616;-79
2023/01/20 07:53:27;;;;;;;74.22;38.05;;;-1.30;99.90;;;;;;5049258;28;20051;-78
2023/01/20 07:55:52;;;;;;;70.18;37.97;;;-1.20;99.90;;;;;;5055560;28;20032;-78
2023/01/20 07:58:18;;;;;;;76.22;38.83;;;-1.20;99.90;;;;;;5064550;28;20116;-78
2023/01/20 08:00:47;;;;;;;65.85;34.85;;;-1.20;99.90;;;;;;5063903;28;20028;-78
2023/01/20 08:03:14;;;;;;;63.88;32.97;;;-1.20;99.90;;;;;;5060890;28;20090;-78
2023/01/20 08:05:40;;;;;;;63.80;36.55;;;-1.10;99.90;;;;;;5065068;28;20085;-78
2023/01/20 08:08:05;;;;;;;82.78;49.13;;;-1.10;99.90;;;;;;5059107;28;20032;-78
2023/01/20 08:10:31;;;;;;;75.10;40.78;;;-1.10;99.90;;;;;;5058377;28;20093;-79
2023/01/20 08:12:57;;;;;;;66.63;36.83;;;-1.10;99.90;;;;;;5063245;28;20468;-79
2023/01/20 08:15:23;;;;;;;66.38;34.65;;;-1.10;99.90;;;;;;5063823;28;23142;-79
2023/01/20 08:17:52;;;;;;;59.08;34.63;;;-1.20;99.90;;;;;;5050768;28;20059;-78
2023/01/20 08:20:18;;;;;;;61.75;35.00;;;-1.20;99.90;;;;;;5064411;28;20134;-79
2023/01/20 08:22:44;;;;;;;72.55;36.08;;;-1.20;99.90;;;;;;5060162;28;20131;-79
2023/01/20 08:25:09;;;;;;;60.95;33.40;;;-1.20;99.90;;;;;;5065917;28;20031;-78
2023/01/20 08:27:35;;;;;;;60.92;33.65;;;-1.20;99.90;;;;;;5073523;28;20016;-78
2023/01/20 08:30:00;;;;;;;56.08;30.75;;;-1.20;99.90;;;;;;5061421;28;20024;-79
2023/01/20 08:32:26;;;;;;;51.33;28.67;;;-1.10;99.90;;;;;;5060575;28;20115;-78
2023/01/20 08:34:52;;;;;;;56.53;30.95;;;-1.10;99.90;;;;;;5066268;28;20090;-78
2023/01/20 08:37:17;;;;;;;57.00;31.17;;;-1.00;99.90;;;;;;5057433;28;20033;-77
2023/01/20 08:39:43;;;;;;;62.85;33.67;;;-1.00;99.90;;;;;;5064896;28;20043;-78
2023/01/20 08:42:08;;;;;;;56.20;30.38;;;-0.90;99.90;;;;;;5055787;28;20522;-78
2023/01/20 08:44:34;;;;;;;59.63;30.42;;;-0.90;99.90;;;;;;5056947;28;20040;-78
2023/01/20 08:47:01;;;;;;;58.30;29.50;;;-0.80;99.90;;;;;;5068950;28;20548;-78
2023/01/20 08:49:28;;;;;;;53.25;27.45;;;-0.70;99.90;;;;;;5063558;28;20053;-78
2023/01/20 08:51:55;;;;;;;59.85;30.85;;;-0.70;99.90;;;;;;5059084;28;20493;-78
2023/01/20 08:54:21;;;;;;;53.65;27.38;;;-0.60;99.90;;;;;;5053623;28;20124;-77
2023/01/20 08:56:52;;;;;;;48.50;26.70;;;-0.60;99.90;;;;;;5062206;28;20063;-78
2023/01/20 08:59:18;;;;;;;51.40;26.77;;;-0.60;99.90;;;;;;5063586;28;20052;-79
2023/01/20 09:01:44;;;;;;;52.17;28.38;;;-0.60;99.90;;;;;;5067049;28;20071;-79
2023/01/20 09:04:10;;;;;;;52.53;28.35;;;-0.60;99.90;;;;;;5068045;28;20039;-79
2023/01/20 09:06:42;;;;;;;49.90;26.42;;;-0.50;99.90;;;;;;5066956;28;20546;-79
2023/01/20 09:09:07;;;;;;;58.83;28.50;;;-0.40;99.90;;;;;;5071539;28;20028;-78
2023/01/20 09:11:33;;;;;;;51.80;27.90;;;-0.40;99.90;;;;;;5060608;28;20028;-79
2023/01/20 09:13:59;;;;;;;49.63;27.20;;;-0.40;99.90;;;;;;5075079;28;20051;-78
2023/01/20 09:16:24;;;;;;;51.33;29.20;;;-0.30;99.90;;;;;;5063962;28;20025;-79
2023/01/20 09:18:50;;;;;;;53.58;28.63;;;-0.30;99.90;;;;;;5062668;28;20033;-78
2023/01/20 09:21:16;;;;;;;52.17;27.88;;;-0.20;99.90;;;;;;5059831;28;20067;-79
2023/01/20 09:23:42;;;;;;;51.80;26.25;;;-0.20;99.90;;;;;;5057637;28;20107;-78
2023/01/20 09:26:08;;;;;;;53.53;26.80;;;-0.10;99.90;;;;;;5058419;28;20024;-78
2023/01/20 09:28:34;;;;;;;49.65;25.98;;;-0.10;99.90;;;;;;5062205;28;20035;-78
2023/01/20 09:31:03;;;;;;;50.97;26.88;;;-0.10;99.90;;;;;;5054365;28;20667;-77
2023/01/20 09:33:29;;;;;;;53.67;27.25;;;0.00;99.90;;;;;;5056866;28;20032;-78
2023/01/20 09:35:56;;;;;;;55.58;28.20;;;0.00;99.90;;;;;;5053993;28;20507;-78
2023/01/20 09:44:39;;;;;;;49.10;26.95;;;0.00;99.90;;;;;;5058060;28;20074;-78
2023/01/20 09:47:27;;;;;;;50.42;27.25;;;0.00;99.90;;;;;;5068306;28;20168;-78
2023/01/20 09:53:17;;;;;;;57.15;30.30;;;0.20;99.90;;;;;;5056681;28;20117;-78
2023/01/20 09:55:55;;;;;;;53.88;27.95;;;0.20;99.90;;;;;;5057020;28;20082;-78
2023/01/20 09:58:45;;;;;;;52.03;28.42;;;0.20;99.90;;;;;;5056369;28;20028;-78
2023/01/20 10:01:23;;;;;;;52.65;27.02;;;;;;;;;;5058134;28;20031;-79
2023/01/20 10:04:09;;;;;;;54.95;27.48;;;0.20;99.90;;;;;;5056826;28;20025;-80
2023/01/20 10:06:57;;;;;;;52.55;27.08;;;0.20;99.90;;;;;;5056275;28;20028;-77
2023/01/20 10:09:37;;;;;;;49.63;26.25;;;0.20;99.90;;;;;;5061872;28;20028;-77
2023/01/20 10:12:11;;;;;;;53.78;27.55;;;0.30;99.90;;;;;;5060072;28;20035;-77
2023/01/20 10:14:49;;;;;;;50.40;25.65;;;0.30;99.90;;;;;;5056912;28;20129;-78
2023/01/20 10:17:28;;;;;;;50.33;26.60;;;0.40;99.90;;;;;;5062150;28;20694;-78
2023/01/20 10:20:06;;;;;;;51.58;26.70;;;0.40;99.90;;;;;;5060249;28;20024;-76
2023/01/20 10:22:55;;;;;;;52.78;26.77;;;0.30;99.90;;;;;;5055409;28;20052;-77
2023/01/20 10:25:27;;;;;;;54.70;27.15;;;0.30;99.90;;;;;;5031610;28;20132;-79
2023/01/20 10:27:57;;;;;;;51.55;26.90;;;0.20;99.90;;;;;;5059583;28;20031;-79
2023/01/20 10:30:29;;;;;;;50.78;25.08;;;0.30;99.90;;;;;;5064786;28;20036;-78
2023/01/20 10:33:22;;;;;;;51.50;27.17;;;0.30;99.90;;;;;;5054792;28;20052;-78
2023/01/20 10:35:54;;;;;;;52.75;28.48;;;0.40;99.90;;;;;;5059830;28;20039;-79
2023/01/20 10:38:35;;;;;;;48.15;26.88;;;0.50;99.90;;;;;;5064273;28;20055;-77
2023/01/20 10:41:20;;;;;;;51.22;27.05;;;0.50;99.90;;;;;;5056217;28;20627;-78
2023/01/20 10:43:47;;;;;;;50.95;25.98;;;0.60;99.90;;;;;;5061292;28;20016;-77
2023/01/20 10:46:22;;;;;;;52.85;27.00;;;0.70;99.90;;;;;;5068147;28;20078;-77
2023/01/20 10:49:09;;;;;;;47.72;25.83;;;0.80;99.90;;;;;;5061366;28;20047;-76
2023/01/20 10:51:49;;;;;;;45.65;24.80;;;0.90;99.90;;;;;;5051218;28;20048;-77
2023/01/20 10:54:40;;;;;;;46.20;24.33;;;0.90;99.90;;;;;;5059766;28;20036;-78
2023/01/20 10:57:11;;;;;;;45.13;24.60;;;0.90;99.90;;;;;;5064060;28;20074;-77
2023/01/20 10:59:40;;;;;;;42.67;24.10;;;1.00;99.90;;;;;;5062981;28;20028;-78
2023/01/20 11:02:33;;;;;;;44.58;23.65;;;1.10;99.90;;;;;;5062319;28;20044;-77
2023/01/20 11:05:01;;;;;;;44.95;23.48;;;1.10;99.90;;;;;;5058032;28;20040;-78
2023/01/20 11:07:30;;;;;;;47.00;24.45;;;1.10;99.90;;;;;;5055787;28;20037;-77
2023/01/20 11:09:55;;;;;;;42.72;23.25;;;1.20;99.90;;;;;;5059957;28;20107;-75
2023/01/20 11:12:26;;;;;;;45.85;24.38;;;1.20;99.90;;;;;;5064592;28;20169;-77
2023/01/20 11:14:54;;;;;;;46.20;24.50;;;1.10;99.90;;;;;;5058687;28;20074;-78
2023/01/20 11:17:20;;;;;;;44.42;23.90;;;1.00;99.90;;;;;;5072564;28;20012;-78
2023/01/20 11:19:54;;;;;;;39.63;22.55;;;1.00;99.90;;;;;;5065643;28;20029;-78
2023/01/20 11:22:32;;;;;;;40.63;22.83;;;1.00;99.90;;;;;;5065766;28;20384;-78
2023/01/20 11:25:00;;;;;;;43.38;23.23;;;1.00;99.90;;;;;;5057940;28;20174;-78
2023/01/20 11:27:40;;;;;;;44.22;24.17;;;1.10;99.90;;;;;;5071302;28;20032;-79
2023/01/20 11:30:19;;;;;;;42.67;22.58;;;1.10;99.90;;;;;;5070085;28;20417;-79
2023/01/20 11:32:45;;;;;;;41.35;22.70;;;1.00;99.90;;;;;;5062498;28;20137;-79
2023/01/20 11:35:23;;;;;;;40.10;21.80;;;1.00;99.90;;;;;;5064876;28;20120;-79
2023/01/20 11:37:50;;;;;;;41.42;21.75;;;0.90;99.90;;;;;;5068535;28;20527;-79
2023/01/20 11:40:23;;;;;;;41.35;23.10;;;0.90;99.90;;;;;;5058885;28;20026;-78
2023/01/20 11:42:49;;;;;;;;;;;0.90;99.90;;;;;;5056531;28;20028;-78
2023/01/20 11:45:25;;;;;;;41.63;21.80;;;0.90;99.90;;;;;;5066391;28;20404;-78
2023/01/20 11:48:02;;;;;;;40.10;21.85;;;0.80;99.90;;;;;;5065510;28;20024;-78
2023/01/20 11:50:56;;;;;;;41.67;21.70;;;0.90;99.90;;;;;;5063874;28;20059;-78
2023/01/20 11:53:25;;;;;;;42.05;22.52;;;0.90;99.90;;;;;;5059258;28;20039;-77
2023/01/20 11:56:04;;;;;;;40.03;22.70;;;0.90;99.90;;;;;;5060846;28;20108;-78
2023/01/20 11:58:47;;;;;;;42.42;22.67;;;1.00;99.90;;;;;;5060728;28;20383;-78
2023/01/20 12:01:27;;;;;;;38.97;21.75;;;1.20;99.90;;;;;;5064752;28;20123;-79
2023/01/20 12:04:13;;;;;;;37.95;21.40;;;1.30;99.90;;;;;;5063303;28;20079;-79
2023/01/20 12:07:04;;;;;;;37.50;21.30;;;1.40;99.90;;;;;;5056008;28;20559;-79
2023/01/20 12:09:37;;;;;;;38.55;21.42;;;1.50;99.90;;;;;;5052979;28;20054;-80
2023/01/20 12:12:11;;;;;;;37.15;20.33;;;1.70;99.90;;;;;;5078461;28;20064;-80
2023/01/20 12:14:44;;;;;;;36.65;20.88;;;2.00;99.90;;;;;;5069186;28;20055;-80
2023/01/20 12:17:17;;;;;;;33.90;19.60;;;2.20;99.90;;;;;;5062788;28;20285;-81
2023/01/20 12:19:56;;;;;;;37.30;19.08;;;2.40;99.90;;;;;;5063661;28;20055;-82
2023/01/20 12:22:37;;;;;;;32.38;18.67;;;2.60;99.90;;;;;;5056121;28;20067;-81
2023/01/20 12:25:26;;;;;;;33.20;18.40;;;2.70;99.90;;;;;;5068313;28;20024;-82
2023/01/20 12:28:02;;;;;;;32.20;18.38;;;2.80;99.90;;;;;;5064062;28;20485;-82
2023/01/20 12:30:46;;;;;;;31.25;18.45;;;2.80;99.90;;;;;;5064057;28;20032;-81
2023/01/20 12:33:24;;;;;;;32.92;17.92;;;2.90;99.90;;;;;;5077307;28;20037;-81
2023/01/20 12:36:18;;;;;;;31.27;18.20;;;3.10;99.90;;;;;;5062817;28;20055;-80
2023/01/20 12:39:10;;;;;;;32.35;18.08;;;3.30;99.90;;;;;;5064296;28;20169;-80
2023/01/20 12:41:48;;;;;;;29.13;16.90;;;;;;;;;;5064463;28;20616;-82
2023/01/20 12:44:48;;;;;;;29.20;17.48;;;3.60;99.90;;;;;;5061588;28;20039;-85
2023/01/20 12:47:37;;;;;;;28.23;16.20;;;3.60;99.90;;;;;;5058976;28;20033;-87
2023/01/20 12:50:03;;;;;;;32.65;18.02;;;3.50;99.90;;;;;;5077322;28;20771;-86
2023/01/20 12:52:41;;;;;;;26.23;16.33;;;3.40;99.90;;;;;;5062358;28;20503;-86
2023/01/20 12:55:31;;;;;;;28.58;16.98;;;3.40;99.90;;;;;;5071660;28;20414;-84
2023/01/20 12:58:14;;;;;;;28.33;15.48;;;3.40;99.90;;;;;;5071088;28;20024;-83
2023/01/20 13:01:15;;;;;;;25.88;13.95;;;3.40;99.90;;;;;;5056772;28;20345;-78
2023/01/20 13:03:47;;;;;;;21.77;12.38;;;3.30;99.90;;;;;;4340565;28;10001126;-89
2023/01/20 13:06:50;;;;;;;19.42;10.98;;;3.40;99.90;;;;;;5040275;28;20045;-83
2023/01/20 13:09:24;;;;;;;14.87;9.57;;;3.30;99.90;;;;;;5051355;28;20234;-81
2023/01/20 13:12:04;;;;;;;20.02;11.70;;;3.20;99.90;;;;;;5051613;28;20866;-80
2023/01/20 13:14:43;;;;;;;17.00;10.85;;;3.10;99.90;;;;;;5047716;28;20039;-83